sensor_id;sensor_type;location;lat;lon;timestamp;P1;durP1;ratioP1;P2;durP2;ratioP2
25111;SDS011;13092;51.996;4.458;2023-04-03T00:01:19;3.07;;;1.90;;
25111;SDS011;13092;51.996;4.458;2023-04-03T00:03:48;1.80;;;1.70;;
25111;SDS011;13092;51.996;4.458;2023-04-03T00:06:18;4.60;;;1.80;;
25111;SDS011;13092;51.996;4.458;2023-04-03T00:08:46;5.13;;;1.90;;
25111;SDS011;13092;51.996;4.458;2023-04-03T00:11:16;2.93;;;2.10;;
25111;SDS011;13092;51.996;4.458;2023-04-03T00:13:45;3.57;;;1.80;;
25111;SDS011;13092;51.996;4.458;2023-04-03T00:16:13;5.90;;;1.87;;
25111;SDS011;13092;51.996;4.458;2023-04-03T00:18:42;4.07;;;2.13;;
25111;SDS011;13092;51.996;4.458;2023-04-03T00:21:10;4.60;;;1.77;;
25111;SDS011;13092;51.996;4.458;2023-04-03T00:23:40;4.27;;;2.23;;
25111;SDS011;13092;51.996;4.458;2023-04-03T00:26:08;4.13;;;2.17;;
25111;SDS011;13092;51.996;4.458;2023-04-03T00:28:38;4.00;;;1.83;;
25111;SDS011;13092;51.996;4.458;2023-04-03T00:31:06;2.53;;;1.63;;
25111;SDS011;13092;51.996;4.458;2023-04-03T00:33:34;3.70;;;2.13;;
25111;SDS011;13092;51.996;4.458;2023-04-03T00:36:06;2.47;;;1.80;;
25111;SDS011;13092;51.996;4.458;2023-04-03T00:38:35;5.87;;;2.27;;
25111;SDS011;13092;51.996;4.458;2023-04-03T00:41:04;2.70;;;1.90;;
25111;SDS011;13092;51.996;4.458;2023-04-03T00:43:32;4.10;;;1.77;;
25111;SDS011;13092;51.996;4.458;2023-04-03T00:46:01;5.30;;;2.10;;
25111;SDS011;13092;51.996;4.458;2023-04-03T00:48:30;5.43;;;1.93;;
25111;SDS011;13092;51.996;4.458;2023-04-03T00:51:00;4.60;;;2.13;;
25111;SDS011;13092;51.996;4.458;2023-04-03T00:53:30;5.10;;;2.07;;
25111;SDS011;13092;51.996;4.458;2023-04-03T00:56:00;3.23;;;1.70;;
25111;SDS011;13092;51.996;4.458;2023-04-03T00:58:33;3.37;;;2.10;;
25111;SDS011;13092;51.996;4.458;2023-04-03T01:01:08;2.03;;;1.70;;
25111;SDS011;13092;51.996;4.458;2023-04-03T01:03:41;2.93;;;1.80;;
25111;SDS011;13092;51.996;4.458;2023-04-03T01:06:10;6.43;;;1.97;;
25111;SDS011;13092;51.996;4.458;2023-04-03T01:08:39;3.97;;;1.70;;
25111;SDS011;13092;51.996;4.458;2023-04-03T01:11:07;3.57;;;1.63;;
25111;SDS011;13092;51.996;4.458;2023-04-03T01:13:36;2.80;;;1.93;;
25111;SDS011;13092;51.996;4.458;2023-04-03T01:16:04;2.87;;;1.73;;
25111;SDS011;13092;51.996;4.458;2023-04-03T01:18:36;2.00;;;1.67;;
25111;SDS011;13092;51.996;4.458;2023-04-03T01:21:10;6.47;;;2.40;;
25111;SDS011;13092;51.996;4.458;2023-04-03T01:23:58;3.97;;;1.70;;
25111;SDS011;13092;51.996;4.458;2023-04-03T01:26:43;2.27;;;1.70;;
25111;SDS011;13092;51.996;4.458;2023-04-03T01:29:12;3.90;;;1.97;;
25111;SDS011;13092;51.996;4.458;2023-04-03T01:31:51;2.07;;;1.40;;
25111;SDS011;13092;51.996;4.458;2023-04-03T01:34:22;3.23;;;1.80;;
25111;SDS011;13092;51.996;4.458;2023-04-03T01:36:51;2.70;;;1.63;;
25111;SDS011;13092;51.996;4.458;2023-04-03T01:39:20;3.67;;;1.80;;
25111;SDS011;13092;51.996;4.458;2023-04-03T01:41:48;4.20;;;1.63;;
25111;SDS011;13092;51.996;4.458;2023-04-03T01:44:16;4.70;;;1.67;;
25111;SDS011;13092;51.996;4.458;2023-04-03T01:46:44;2.93;;;1.73;;
25111;SDS011;13092;51.996;4.458;2023-04-03T01:49:14;4.90;;;1.70;;
25111;SDS011;13092;51.996;4.458;2023-04-03T01:51:42;4.23;;;2.00;;
25111;SDS011;13092;51.996;4.458;2023-04-03T01:54:11;1.80;;;1.50;;
25111;SDS011;13092;51.996;4.458;2023-04-03T01:56:39;3.27;;;2.00;;
25111;SDS011;13092;51.996;4.458;2023-04-03T01:59:07;5.33;;;1.83;;
25111;SDS011;13092;51.996;4.458;2023-04-03T02:01:35;4.10;;;1.97;;
25111;SDS011;13092;51.996;4.458;2023-04-03T02:04:04;6.37;;;1.97;;
25111;SDS011;13092;51.996;4.458;2023-04-03T02:06:34;4.07;;;2.10;;
25111;SDS011;13092;51.996;4.458;2023-04-03T02:09:02;5.73;;;2.37;;
25111;SDS011;13092;51.996;4.458;2023-04-03T02:11:31;4.20;;;2.27;;
25111;SDS011;13092;51.996;4.458;2023-04-03T02:13:59;4.20;;;2.17;;
25111;SDS011;13092;51.996;4.458;2023-04-03T02:16:27;3.73;;;1.97;;
25111;SDS011;13092;51.996;4.458;2023-04-03T02:18:57;2.83;;;2.00;;
25111;SDS011;13092;51.996;4.458;2023-04-03T02:21:25;3.70;;;1.90;;
25111;SDS011;13092;51.996;4.458;2023-04-03T02:23:55;2.73;;;2.10;;
25111;SDS011;13092;51.996;4.458;2023-04-03T02:26:23;5.70;;;2.07;;
25111;SDS011;13092;51.996;4.458;2023-04-03T02:28:52;4.23;;;2.30;;
25111;SDS011;13092;51.996;4.458;2023-04-03T02:31:20;3.63;;;2.20;;
25111;SDS011;13092;51.996;4.458;2023-04-03T02:33:50;3.53;;;1.93;;
25111;SDS011;13092;51.996;4.458;2023-04-03T02:36:18;5.10;;;2.30;;
25111;SDS011;13092;51.996;4.458;2023-04-03T02:38:46;4.23;;;2.03;;
25111;SDS011;13092;51.996;4.458;2023-04-03T02:41:17;4.50;;;2.20;;
25111;SDS011;13092;51.996;4.458;2023-04-03T02:43:45;5.43;;;2.07;;
25111;SDS011;13092;51.996;4.458;2023-04-03T02:46:13;2.97;;;1.83;;
25111;SDS011;13092;51.996;4.458;2023-04-03T02:48:42;5.40;;;2.17;;
25111;SDS011;13092;51.996;4.458;2023-04-03T02:51:10;4.90;;;2.33;;
25111;SDS011;13092;51.996;4.458;2023-04-03T02:53:38;2.43;;;2.10;;
25111;SDS011;13092;51.996;4.458;2023-04-03T02:56:06;6.33;;;2.23;;
25111;SDS011;13092;51.996;4.458;2023-04-03T02:58:36;2.50;;;2.07;;
25111;SDS011;13092;51.996;4.458;2023-04-03T03:01:04;3.83;;;2.73;;
25111;SDS011;13092;51.996;4.458;2023-04-03T03:03:32;3.40;;;3.03;;
25111;SDS011;13092;51.996;4.458;2023-04-03T03:06:01;5.80;;;4.10;;
25111;SDS011;13092;51.996;4.458;2023-04-03T03:08:30;5.87;;;5.27;;
25111;SDS011;13092;51.996;4.458;2023-04-03T03:10:59;8.30;;;7.50;;
25111;SDS011;13092;51.996;4.458;2023-04-03T03:13:27;8.87;;;8.17;;
25111;SDS011;13092;51.996;4.458;2023-04-03T03:15:57;10.37;;;9.37;;
25111;SDS011;13092;51.996;4.458;2023-04-03T03:18:25;10.67;;;9.77;;
25111;SDS011;13092;51.996;4.458;2023-04-03T03:20:56;9.90;;;9.10;;
25111;SDS011;13092;51.996;4.458;2023-04-03T03:23:26;9.23;;;8.43;;
25111;SDS011;13092;51.996;4.458;2023-04-03T03:25:55;9.13;;;8.20;;
25111;SDS011;13092;51.996;4.458;2023-04-03T03:28:24;10.50;;;9.17;;
25111;SDS011;13092;51.996;4.458;2023-04-03T03:30:53;9.77;;;8.77;;
25111;SDS011;13092;51.996;4.458;2023-04-03T03:33:23;10.97;;;9.97;;
25111;SDS011;13092;51.996;4.458;2023-04-03T03:35:52;11.30;;;10.20;;
25111;SDS011;13092;51.996;4.458;2023-04-03T03:38:24;12.40;;;11.40;;
25111;SDS011;13092;51.996;4.458;2023-04-03T03:40:52;13.10;;;12.00;;
25111;SDS011;13092;51.996;4.458;2023-04-03T03:43:20;14.30;;;13.00;;
25111;SDS011;13092;51.996;4.458;2023-04-03T03:45:51;17.90;;;16.40;;
25111;SDS011;13092;51.996;4.458;2023-04-03T03:48:21;18.13;;;16.73;;
25111;SDS011;13092;51.996;4.458;2023-04-03T03:50:50;17.83;;;16.43;;
25111;SDS011;13092;51.996;4.458;2023-04-03T03:53:18;21.40;;;19.83;;
25111;SDS011;13092;51.996;4.458;2023-04-03T03:55:47;21.90;;;20.33;;
25111;SDS011;13092;51.996;4.458;2023-04-03T03:58:15;22.00;;;20.40;;
25111;SDS011;13092;51.996;4.458;2023-04-03T04:00:43;26.03;;;24.23;;
25111;SDS011;13092;51.996;4.458;2023-04-03T04:03:11;28.43;;;26.37;;
25111;SDS011;13092;51.996;4.458;2023-04-03T04:05:41;29.80;;;27.50;;
25111;SDS011;13092;51.996;4.458;2023-04-03T04:08:09;29.30;;;27.40;;
25111;SDS011;13092;51.996;4.458;2023-04-03T04:10:37;28.80;;;26.83;;
25111;SDS011;13092;51.996;4.458;2023-04-03T04:13:06;29.77;;;27.77;;
25111;SDS011;13092;51.996;4.458;2023-04-03T04:15:34;32.03;;;29.63;;
25111;SDS011;13092;51.996;4.458;2023-04-03T04:18:03;29.87;;;27.83;;
25111;SDS011;13092;51.996;4.458;2023-04-03T04:20:31;29.93;;;27.93;;
25111;SDS011;13092;51.996;4.458;2023-04-03T04:23:00;31.80;;;29.77;;
25111;SDS011;13092;51.996;4.458;2023-04-03T04:25:29;32.23;;;30.17;;
25111;SDS011;13092;51.996;4.458;2023-04-03T04:27:57;33.77;;;31.60;;
25111;SDS011;13092;51.996;4.458;2023-04-03T04:30:25;32.83;;;30.77;;
25111;SDS011;13092;51.996;4.458;2023-04-03T04:32:53;33.47;;;31.23;;
25111;SDS011;13092;51.996;4.458;2023-04-03T04:35:22;35.33;;;32.87;;
25111;SDS011;13092;51.996;4.458;2023-04-03T04:37:50;36.53;;;34.07;;
25111;SDS011;13092;51.996;4.458;2023-04-03T04:40:20;35.40;;;33.10;;
25111;SDS011;13092;51.996;4.458;2023-04-03T04:42:49;35.33;;;32.93;;
25111;SDS011;13092;51.996;4.458;2023-04-03T04:45:17;34.90;;;32.50;;
25111;SDS011;13092;51.996;4.458;2023-04-03T04:47:46;33.83;;;31.73;;
25111;SDS011;13092;51.996;4.458;2023-04-03T04:50:14;34.37;;;31.97;;
25111;SDS011;13092;51.996;4.458;2023-04-03T04:52:42;34.57;;;31.93;;
25111;SDS011;13092;51.996;4.458;2023-04-03T04:55:10;34.17;;;31.97;;
25111;SDS011;13092;51.996;4.458;2023-04-03T04:57:41;34.17;;;31.70;;
25111;SDS011;13092;51.996;4.458;2023-04-03T05:00:10;35.27;;;32.73;;
25111;SDS011;13092;51.996;4.458;2023-04-03T05:02:39;36.03;;;33.53;;
25111;SDS011;13092;51.996;4.458;2023-04-03T05:05:08;35.73;;;33.23;;
25111;SDS011;13092;51.996;4.458;2023-04-03T05:07:37;35.73;;;33.23;;
25111;SDS011;13092;51.996;4.458;2023-04-03T05:10:05;37.70;;;34.90;;
25111;SDS011;13092;51.996;4.458;2023-04-03T05:12:34;39.00;;;36.23;;
25111;SDS011;13092;51.996;4.458;2023-04-03T05:15:05;38.37;;;35.57;;
25111;SDS011;13092;51.996;4.458;2023-04-03T05:17:34;38.20;;;35.50;;
25111;SDS011;13092;51.996;4.458;2023-04-03T05:20:03;38.80;;;36.10;;
25111;SDS011;13092;51.996;4.458;2023-04-03T05:22:32;39.20;;;36.20;;
25111;SDS011;13092;51.996;4.458;2023-04-03T05:25:01;39.73;;;36.83;;
25111;SDS011;13092;51.996;4.458;2023-04-03T05:27:29;39.20;;;36.37;;
25111;SDS011;13092;51.996;4.458;2023-04-03T05:29:58;39.50;;;36.37;;
25111;SDS011;13092;51.996;4.458;2023-04-03T05:32:27;38.10;;;35.30;;
25111;SDS011;13092;51.996;4.458;2023-04-03T05:34:55;38.93;;;35.77;;
25111;SDS011;13092;51.996;4.458;2023-04-03T05:37:26;39.07;;;36.03;;
25111;SDS011;13092;51.996;4.458;2023-04-03T05:39:54;40.17;;;37.07;;
25111;SDS011;13092;51.996;4.458;2023-04-03T05:42:22;39.27;;;36.57;;
25111;SDS011;13092;51.996;4.458;2023-04-03T05:44:51;38.83;;;36.03;;
25111;SDS011;13092;51.996;4.458;2023-04-03T05:47:19;38.57;;;35.67;;
25111;SDS011;13092;51.996;4.458;2023-04-03T05:49:48;39.63;;;36.80;;
25111;SDS011;13092;51.996;4.458;2023-04-03T05:52:17;39.23;;;36.43;;
25111;SDS011;13092;51.996;4.458;2023-04-03T05:54:51;40.37;;;37.27;;
25111;SDS011;13092;51.996;4.458;2023-04-03T05:57:19;38.17;;;35.47;;
25111;SDS011;13092;51.996;4.458;2023-04-03T05:59:48;38.13;;;35.43;;
25111;SDS011;13092;51.996;4.458;2023-04-03T06:02:17;36.57;;;33.87;;
25111;SDS011;13092;51.996;4.458;2023-04-03T06:04:49;37.90;;;34.83;;
25111;SDS011;13092;51.996;4.458;2023-04-03T06:07:21;37.27;;;34.57;;
25111;SDS011;13092;51.996;4.458;2023-04-03T06:09:54;37.97;;;35.00;;
25111;SDS011;13092;51.996;4.458;2023-04-03T06:12:24;39.30;;;36.30;;
25111;SDS011;13092;51.996;4.458;2023-04-03T06:14:52;38.60;;;35.67;;
25111;SDS011;13092;51.996;4.458;2023-04-03T06:17:20;37.37;;;34.73;;
25111;SDS011;13092;51.996;4.458;2023-04-03T06:19:51;38.07;;;34.90;;
25111;SDS011;13092;51.996;4.458;2023-04-03T06:22:20;37.37;;;34.57;;
25111;SDS011;13092;51.996;4.458;2023-04-03T06:24:48;36.73;;;33.87;;
25111;SDS011;13092;51.996;4.458;2023-04-03T06:27:16;37.63;;;34.63;;
25111;SDS011;13092;51.996;4.458;2023-04-03T06:29:44;37.77;;;34.67;;
25111;SDS011;13092;51.996;4.458;2023-04-03T06:32:12;37.87;;;34.97;;
25111;SDS011;13092;51.996;4.458;2023-04-03T06:34:40;38.20;;;35.23;;
25111;SDS011;13092;51.996;4.458;2023-04-03T06:37:11;38.30;;;35.20;;
25111;SDS011;13092;51.996;4.458;2023-04-03T06:39:42;37.30;;;34.40;;
25111;SDS011;13092;51.996;4.458;2023-04-03T06:42:11;36.70;;;34.03;;
25111;SDS011;13092;51.996;4.458;2023-04-03T06:44:39;39.80;;;36.23;;
25111;SDS011;13092;51.996;4.458;2023-04-03T06:47:08;37.90;;;34.90;;
25111;SDS011;13092;51.996;4.458;2023-04-03T06:49:39;37.67;;;34.97;;
25111;SDS011;13092;51.996;4.458;2023-04-03T06:52:07;37.47;;;34.47;;
25111;SDS011;13092;51.996;4.458;2023-04-03T06:54:37;36.30;;;33.60;;
25111;SDS011;13092;51.996;4.458;2023-04-03T06:57:06;35.50;;;32.93;;
25111;SDS011;13092;51.996;4.458;2023-04-03T06:59:34;34.10;;;31.80;;
25111;SDS011;13092;51.996;4.458;2023-04-03T07:02:03;34.53;;;32.20;;
25111;SDS011;13092;51.996;4.458;2023-04-03T07:04:32;34.80;;;32.40;;
25111;SDS011;13092;51.996;4.458;2023-04-03T07:07:00;34.63;;;32.23;;
25111;SDS011;13092;51.996;4.458;2023-04-03T07:09:28;34.37;;;32.00;;
25111;SDS011;13092;51.996;4.458;2023-04-03T07:11:58;33.80;;;31.70;;
25111;SDS011;13092;51.996;4.458;2023-04-03T07:14:26;34.53;;;32.27;;
25111;SDS011;13092;51.996;4.458;2023-04-03T07:16:54;32.90;;;30.70;;
25111;SDS011;13092;51.996;4.458;2023-04-03T07:19:22;33.00;;;30.70;;
25111;SDS011;13092;51.996;4.458;2023-04-03T07:21:54;30.70;;;28.53;;
25111;SDS011;13092;51.996;4.458;2023-04-03T07:24:22;29.53;;;27.63;;
25111;SDS011;13092;51.996;4.458;2023-04-03T07:26:50;28.63;;;26.80;;
25111;SDS011;13092;51.996;4.458;2023-04-03T07:29:21;28.33;;;26.33;;
25111;SDS011;13092;51.996;4.458;2023-04-03T07:31:50;26.37;;;24.67;;
25111;SDS011;13092;51.996;4.458;2023-04-03T07:34:18;24.63;;;22.93;;
25111;SDS011;13092;51.996;4.458;2023-04-03T07:36:47;23.17;;;21.43;;
25111;SDS011;13092;51.996;4.458;2023-04-03T07:39:15;24.67;;;22.97;;
25111;SDS011;13092;51.996;4.458;2023-04-03T07:41:43;22.17;;;20.67;;
25111;SDS011;13092;51.996;4.458;2023-04-03T07:44:12;19.93;;;18.30;;
25111;SDS011;13092;51.996;4.458;2023-04-03T07:46:42;21.20;;;19.60;;
25111;SDS011;13092;51.996;4.458;2023-04-03T07:49:10;18.43;;;17.03;;
25111;SDS011;13092;51.996;4.458;2023-04-03T07:51:38;18.10;;;16.77;;
25111;SDS011;13092;51.996;4.458;2023-04-03T07:54:06;16.87;;;15.67;;
25111;SDS011;13092;51.996;4.458;2023-04-03T07:56:35;18.33;;;16.77;;
25111;SDS011;13092;51.996;4.458;2023-04-03T07:59:03;15.97;;;14.53;;
25111;SDS011;13092;51.996;4.458;2023-04-03T08:01:31;12.60;;;11.40;;
25111;SDS011;13092;51.996;4.458;2023-04-03T08:04:01;13.33;;;12.03;;
25111;SDS011;13092;51.996;4.458;2023-04-03T08:06:31;14.53;;;13.27;;
25111;SDS011;13092;51.996;4.458;2023-04-03T08:09:12;12.80;;;11.57;;
25111;SDS011;13092;51.996;4.458;2023-04-03T08:11:41;12.87;;;11.77;;
25111;SDS011;13092;51.996;4.458;2023-04-03T08:14:10;8.80;;;8.00;;
25111;SDS011;13092;51.996;4.458;2023-04-03T08:16:43;9.63;;;8.60;;
25111;SDS011;13092;51.996;4.458;2023-04-03T08:19:16;9.80;;;7.70;;
25111;SDS011;13092;51.996;4.458;2023-04-03T08:21:52;6.03;;;4.73;;
25111;SDS011;13092;51.996;4.458;2023-04-03T08:24:21;7.70;;;4.07;;
25111;SDS011;13092;51.996;4.458;2023-04-03T08:26:49;5.00;;;3.10;;
25111;SDS011;13092;51.996;4.458;2023-04-03T08:29:17;7.80;;;3.50;;
25111;SDS011;13092;51.996;4.458;2023-04-03T08:31:45;5.77;;;3.20;;
25111;SDS011;13092;51.996;4.458;2023-04-03T08:34:17;5.70;;;3.00;;
25111;SDS011;13092;51.996;4.458;2023-04-03T08:36:46;6.47;;;2.80;;
25111;SDS011;13092;51.996;4.458;2023-04-03T08:39:15;9.87;;;2.90;;
25111;SDS011;13092;51.996;4.458;2023-04-03T08:41:43;7.80;;;3.67;;
25111;SDS011;13092;51.996;4.458;2023-04-03T08:44:15;7.53;;;2.80;;
25111;SDS011;13092;51.996;4.458;2023-04-03T08:47:01;3.03;;;2.00;;
25111;SDS011;13092;51.996;4.458;2023-04-03T08:49:39;6.20;;;2.10;;
25111;SDS011;13092;51.996;4.458;2023-04-03T08:52:14;6.60;;;2.37;;
25111;SDS011;13092;51.996;4.458;2023-04-03T08:54:48;5.40;;;2.20;;
25111;SDS011;13092;51.996;4.458;2023-04-03T08:57:20;6.97;;;2.00;;
25111;SDS011;13092;51.996;4.458;2023-04-03T08:59:56;5.70;;;2.13;;
25111;SDS011;13092;51.996;4.458;2023-04-03T09:02:28;4.03;;;1.73;;
25111;SDS011;13092;51.996;4.458;2023-04-03T09:05:05;3.57;;;1.90;;
25111;SDS011;13092;51.996;4.458;2023-04-03T09:07:39;4.13;;;1.80;;
25111;SDS011;13092;51.996;4.458;2023-04-03T09:10:14;8.67;;;2.30;;
25111;SDS011;13092;51.996;4.458;2023-04-03T09:12:44;5.70;;;1.90;;
25111;SDS011;13092;51.996;4.458;2023-04-03T09:15:25;4.17;;;2.33;;
25111;SDS011;13092;51.996;4.458;2023-04-03T09:43:28;5.57;;;2.37;;
25111;SDS011;13092;51.996;4.458;2023-04-03T09:48:52;1.10;;;1.00;;
25111;SDS011;13092;51.996;4.458;2023-04-03T09:51:35;1.43;;;1.10;;
25111;SDS011;13092;51.996;4.458;2023-04-03T09:54:24;4.57;;;1.43;;
25111;SDS011;13092;51.996;4.458;2023-04-03T09:59:58;3.13;;;1.57;;
25111;SDS011;13092;51.996;4.458;2023-04-03T10:02:36;2.53;;;1.33;;
25111;SDS011;13092;51.996;4.458;2023-04-03T10:08:09;2.10;;;1.30;;
25111;SDS011;13092;51.996;4.458;2023-04-03T10:10:47;5.03;;;1.43;;
25111;SDS011;13092;51.996;4.458;2023-04-03T10:13:32;4.97;;;1.30;;
25111;SDS011;13092;51.996;4.458;2023-04-03T10:16:18;1.40;;;1.20;;
25111;SDS011;13092;51.996;4.458;2023-04-03T10:18:54;2.93;;;1.20;;
25111;SDS011;13092;51.996;4.458;2023-04-03T10:21:33;2.40;;;1.20;;
25111;SDS011;13092;51.996;4.458;2023-04-03T10:24:10;3.65;;;1.50;;
25111;SDS011;13092;51.996;4.458;2023-04-03T10:26:45;3.28;;;1.27;;
25111;SDS011;13092;51.996;4.458;2023-04-03T10:29:21;2.22;;;1.52;;
25111;SDS011;13092;51.996;4.458;2023-04-03T10:32:01;0.90;;;0.90;;
25111;SDS011;13092;51.996;4.458;2023-04-03T10:34:39;3.08;;;1.60;;
25111;SDS011;13092;51.996;4.458;2023-04-03T10:37:29;2.88;;;1.35;;
25111;SDS011;13092;51.996;4.458;2023-04-03T10:40:05;1.58;;;0.82;;
25111;SDS011;13092;51.996;4.458;2023-04-03T10:42:50;1.17;;;1.08;;
25111;SDS011;13092;51.996;4.458;2023-04-03T10:45:26;2.28;;;1.02;;
25111;SDS011;13092;51.996;4.458;2023-04-03T10:48:02;3.42;;;1.52;;
25111;SDS011;13092;51.996;4.458;2023-04-03T10:50:42;2.05;;;0.98;;
25111;SDS011;13092;51.996;4.458;2023-04-03T10:53:30;2.22;;;1.00;;
25111;SDS011;13092;51.996;4.458;2023-04-03T10:56:24;1.98;;;1.00;;
25111;SDS011;13092;51.996;4.458;2023-04-03T11:14:24;1.38;;;1.10;;
25111;SDS011;13092;51.996;4.458;2023-04-03T11:16:59;0.90;;;0.90;;
25111;SDS011;13092;51.996;4.458;2023-04-03T11:19:35;1.88;;;1.52;;
25111;SDS011;13092;51.996;4.458;2023-04-03T11:22:09;2.28;;;0.90;;
25111;SDS011;13092;51.996;4.458;2023-04-03T11:24:46;4.82;;;1.15;;
25111;SDS011;13092;51.996;4.458;2023-04-03T11:27:25;2.75;;;1.60;;
25111;SDS011;13092;51.996;4.458;2023-04-03T11:30:00;2.22;;;1.10;;
25111;SDS011;13092;51.996;4.458;2023-04-03T11:32:51;2.47;;;0.98;;
25111;SDS011;13092;51.996;4.458;2023-04-03T11:35:33;1.30;;;1.10;;
25111;SDS011;13092;51.996;4.458;2023-04-03T11:38:03;1.77;;;1.10;;
25111;SDS011;13092;51.996;4.458;2023-04-03T11:40:34;1.15;;;0.75;;
25111;SDS011;13092;51.996;4.458;2023-04-03T11:43:06;1.33;;;1.02;;
25111;SDS011;13092;51.996;4.458;2023-04-03T11:45:51;1.70;;;0.85;;
25111;SDS011;13092;51.996;4.458;2023-04-03T12:00:48;2.58;;;1.15;;
25111;SDS011;13092;51.996;4.458;2023-04-03T12:03:32;2.38;;;0.60;;
25111;SDS011;13092;51.996;4.458;2023-04-03T12:09:22;0.82;;;0.60;;
25111;SDS011;13092;51.996;4.458;2023-04-03T12:11:54;1.23;;;0.70;;
25111;SDS011;13092;51.996;4.458;2023-04-03T12:14:28;0.60;;;0.60;;
25111;SDS011;13092;51.996;4.458;2023-04-03T12:17:01;0.85;;;0.73;;
25111;SDS011;13092;51.996;4.458;2023-04-03T12:19:31;0.73;;;0.73;;
25111;SDS011;13092;51.996;4.458;2023-04-03T12:22:05;1.27;;;0.82;;
25111;SDS011;13092;51.996;4.458;2023-04-03T12:24:39;0.93;;;0.80;;
25111;SDS011;13092;51.996;4.458;2023-04-03T12:27:14;0.95;;;0.60;;
25111;SDS011;13092;51.996;4.458;2023-04-03T12:29:59;1.52;;;0.80;;
25111;SDS011;13092;51.996;4.458;2023-04-03T12:32:47;1.92;;;0.77;;
25111;SDS011;13092;51.996;4.458;2023-04-03T12:35:39;0.75;;;0.70;;
25111;SDS011;13092;51.996;4.458;2023-04-03T12:38:23;0.88;;;0.80;;
25111;SDS011;13092;51.996;4.458;2023-04-03T12:41:21;1.42;;;0.80;;
25111;SDS011;13092;51.996;4.458;2023-04-03T12:44:11;1.50;;;0.88;;
25111;SDS011;13092;51.996;4.458;2023-04-03T12:46:58;1.92;;;0.88;;
25111;SDS011;13092;51.996;4.458;2023-04-03T12:49:45;1.42;;;0.90;;
25111;SDS011;13092;51.996;4.458;2023-04-03T12:52:18;0.80;;;0.80;;
25111;SDS011;13092;51.996;4.458;2023-04-03T12:55:07;1.63;;;1.05;;
25111;SDS011;13092;51.996;4.458;2023-04-03T12:57:42;1.10;;;1.00;;
25111;SDS011;13092;51.996;4.458;2023-04-03T13:00:21;1.73;;;1.27;;
25111;SDS011;13092;51.996;4.458;2023-04-03T13:03:06;1.73;;;1.15;;
25111;SDS011;13092;51.996;4.458;2023-04-03T13:05:51;2.47;;;1.00;;
25111;SDS011;13092;51.996;4.458;2023-04-03T13:08:27;1.20;;;1.10;;
25111;SDS011;13092;51.996;4.458;2023-04-03T13:11:05;2.50;;;1.25;;
25111;SDS011;13092;51.996;4.458;2023-04-03T13:13:53;2.08;;;1.30;;
25111;SDS011;13092;51.996;4.458;2023-04-03T13:16:39;2.25;;;1.08;;
25111;SDS011;13092;51.996;4.458;2023-04-03T13:19:16;5.05;;;1.55;;
25111;SDS011;13092;51.996;4.458;2023-04-03T13:21:48;0.95;;;0.95;;
25111;SDS011;13092;51.996;4.458;2023-04-03T13:24:24;2.47;;;1.30;;
25111;SDS011;13092;51.996;4.458;2023-04-03T13:27:04;3.03;;;1.45;;
25111;SDS011;13092;51.996;4.458;2023-04-03T13:29:34;2.20;;;1.20;;
25111;SDS011;13092;51.996;4.458;2023-04-03T13:32:13;1.70;;;1.30;;
25111;SDS011;13092;51.996;4.458;2023-04-03T13:34:47;3.83;;;1.20;;
25111;SDS011;13092;51.996;4.458;2023-04-03T13:37:24;1.80;;;1.13;;
25111;SDS011;13092;51.996;4.458;2023-04-03T13:39:58;2.47;;;1.38;;
25111;SDS011;13092;51.996;4.458;2023-04-03T13:42:36;1.85;;;1.25;;
25111;SDS011;13092;51.996;4.458;2023-04-03T13:45:10;2.38;;;1.27;;
25111;SDS011;13092;51.996;4.458;2023-04-03T13:48:06;3.00;;;1.45;;
25111;SDS011;13092;51.996;4.458;2023-04-03T13:50:51;5.47;;;1.38;;
25111;SDS011;13092;51.996;4.458;2023-04-03T13:53:27;3.00;;;1.35;;
25111;SDS011;13092;51.996;4.458;2023-04-03T13:56:04;3.00;;;1.52;;
25111;SDS011;13092;51.996;4.458;2023-04-03T13:58:36;2.75;;;1.42;;
25111;SDS011;13092;51.996;4.458;2023-04-03T14:01:08;5.15;;;1.60;;
25111;SDS011;13092;51.996;4.458;2023-04-03T14:03:42;2.58;;;1.50;;
25111;SDS011;13092;51.996;4.458;2023-04-03T14:06:15;3.17;;;1.48;;
25111;SDS011;13092;51.996;4.458;2023-04-03T14:08:46;3.65;;;1.20;;
25111;SDS011;13092;51.996;4.458;2023-04-03T14:11:19;1.88;;;1.27;;
25111;SDS011;13092;51.996;4.458;2023-04-03T14:13:50;4.95;;;1.48;;
25111;SDS011;13092;51.996;4.458;2023-04-03T14:16:21;1.80;;;1.33;;
25111;SDS011;13092;51.996;4.458;2023-04-03T14:18:54;4.35;;;1.45;;
25111;SDS011;13092;51.996;4.458;2023-04-03T14:21:24;3.15;;;1.60;;
25111;SDS011;13092;51.996;4.458;2023-04-03T14:23:56;2.17;;;1.25;;
25111;SDS011;13092;51.996;4.458;2023-04-03T14:26:28;3.28;;;1.40;;
25111;SDS011;13092;51.996;4.458;2023-04-03T14:29:09;2.95;;;1.42;;
25111;SDS011;13092;51.996;4.458;2023-04-03T14:32:00;1.40;;;1.30;;
25111;SDS011;13092;51.996;4.458;2023-04-03T14:35:01;3.70;;;1.30;;
25111;SDS011;13092;51.996;4.458;2023-04-03T14:37:47;3.13;;;1.48;;
25111;SDS011;13092;51.996;4.458;2023-04-03T14:40:26;3.42;;;1.60;;
25111;SDS011;13092;51.996;4.458;2023-04-03T14:42:58;2.25;;;1.27;;
25111;SDS011;13092;51.996;4.458;2023-04-03T14:45:29;4.57;;;1.63;;
25111;SDS011;13092;51.996;4.458;2023-04-03T14:48:00;2.30;;;1.40;;
25111;SDS011;13092;51.996;4.458;2023-04-03T14:50:35;1.92;;;1.30;;
25111;SDS011;13092;51.996;4.458;2023-04-03T14:53:34;2.88;;;1.27;;
25111;SDS011;13092;51.996;4.458;2023-04-03T14:56:08;1.73;;;1.40;;
25111;SDS011;13092;51.996;4.458;2023-04-03T14:58:41;2.08;;;1.40;;
25111;SDS011;13092;51.996;4.458;2023-04-03T15:01:25;4.03;;;1.65;;
25111;SDS011;13092;51.996;4.458;2023-04-03T15:04:04;3.95;;;1.33;;
25111;SDS011;13092;51.996;4.458;2023-04-03T15:06:41;2.92;;;1.23;;
25111;SDS011;13092;51.996;4.458;2023-04-03T15:09:18;2.03;;;1.30;;
25111;SDS011;13092;51.996;4.458;2023-04-03T15:11:52;1.75;;;1.10;;
25111;SDS011;13092;51.996;4.458;2023-04-03T15:14:25;3.78;;;1.50;;
25111;SDS011;13092;51.996;4.458;2023-04-03T15:20:11;2.28;;;1.40;;
25111;SDS011;13092;51.996;4.458;2023-04-03T15:22:51;3.67;;;1.48;;
25111;SDS011;13092;51.996;4.458;2023-04-03T15:25:23;3.03;;;1.33;;
25111;SDS011;13092;51.996;4.458;2023-04-03T15:27:53;2.75;;;1.55;;
25111;SDS011;13092;51.996;4.458;2023-04-03T15:30:23;2.97;;;1.45;;
25111;SDS011;13092;51.996;4.458;2023-04-03T15:32:56;2.33;;;1.30;;
25111;SDS011;13092;51.996;4.458;2023-04-03T15:35:31;1.73;;;1.40;;
25111;SDS011;13092;51.996;4.458;2023-04-03T15:38:00;3.45;;;1.45;;
25111;SDS011;13092;51.996;4.458;2023-04-03T15:40:28;2.25;;;1.63;;
25111;SDS011;13092;51.996;4.458;2023-04-03T15:42:59;2.20;;;1.70;;
25111;SDS011;13092;51.996;4.458;2023-04-03T15:45:29;1.50;;;1.35;;
25111;SDS011;13092;51.996;4.458;2023-04-03T15:48:01;3.03;;;1.77;;
25111;SDS011;13092;51.996;4.458;2023-04-03T15:50:50;2.78;;;1.50;;
25111;SDS011;13092;51.996;4.458;2023-04-03T15:53:28;1.98;;;1.58;;
25111;SDS011;13092;51.996;4.458;2023-04-03T15:56:08;2.65;;;1.27;;
25111;SDS011;13092;51.996;4.458;2023-04-03T15:58:41;2.30;;;1.58;;
25111;SDS011;13092;51.996;4.458;2023-04-03T16:01:12;3.03;;;1.60;;
25111;SDS011;13092;51.996;4.458;2023-04-03T16:03:41;2.17;;;1.80;;
25111;SDS011;13092;51.996;4.458;2023-04-03T16:06:16;6.53;;;1.92;;
25111;SDS011;13092;51.996;4.458;2023-04-03T16:08:47;6.30;;;2.00;;
25111;SDS011;13092;51.996;4.458;2023-04-03T16:11:17;2.03;;;1.80;;
25111;SDS011;13092;51.996;4.458;2023-04-03T16:13:47;4.13;;;1.80;;
25111;SDS011;13092;51.996;4.458;2023-04-03T16:16:16;3.35;;;1.70;;
25111;SDS011;13092;51.996;4.458;2023-04-03T16:18:46;2.58;;;1.50;;